sensor_id;sensor_type;location;lat;lon;timestamp;P1;durP1;ratioP1;P2;durP2;ratioP2
23362;SDS011;11853;48.080;11.960;2022-08-19T00:01:44;6.57;;;6.07;;
23362;SDS011;11853;48.080;11.960;2022-08-19T00:04:13;6.60;;;6.07;;
23362;SDS011;11853;48.080;11.960;2022-08-19T00:06:41;6.82;;;6.18;;
23362;SDS011;11853;48.080;11.960;2022-08-19T00:09:17;6.03;;;5.53;;
23362;SDS011;11853;48.080;11.960;2022-08-19T00:11:49;6.57;;;5.93;;
23362;SDS011;11853;48.080;11.960;2022-08-19T00:14:16;6.72;;;6.13;;
23362;SDS011;11853;48.080;11.960;2022-08-19T00:16:43;6.45;;;5.95;;
23362;SDS011;11853;48.080;11.960;2022-08-19T00:19:10;6.75;;;6.15;;
23362;SDS011;11853;48.080;11.960;2022-08-19T00:21:37;6.63;;;6.03;;
23362;SDS011;11853;48.080;11.960;2022-08-19T00:24:05;6.35;;;5.85;;
23362;SDS011;11853;48.080;11.960;2022-08-19T00:26:34;6.45;;;5.85;;
23362;SDS011;11853;48.080;11.960;2022-08-19T00:29:07;5.63;;;5.22;;
23362;SDS011;11853;48.080;11.960;2022-08-19T00:31:36;6.28;;;5.57;;
23362;SDS011;11853;48.080;11.960;2022-08-19T00:34:04;6.43;;;5.82;;
23362;SDS011;11853;48.080;11.960;2022-08-19T00:36:29;5.38;;;4.97;;
23362;SDS011;11853;48.080;11.960;2022-08-19T00:38:56;5.97;;;5.47;;
23362;SDS011;11853;48.080;11.960;2022-08-19T00:41:23;6.63;;;5.93;;
23362;SDS011;11853;48.080;11.960;2022-08-19T00:43:57;5.30;;;4.90;;
23362;SDS011;11853;48.080;11.960;2022-08-19T00:46:29;5.28;;;4.88;;
23362;SDS011;11853;48.080;11.960;2022-08-19T00:48:55;6.32;;;5.72;;
23362;SDS011;11853;48.080;11.960;2022-08-19T00:51:23;5.32;;;4.93;;
23362;SDS011;11853;48.080;11.960;2022-08-19T00:53:51;5.18;;;4.78;;
23362;SDS011;11853;48.080;11.960;2022-08-19T00:56:20;5.97;;;5.47;;
23362;SDS011;11853;48.080;11.960;2022-08-19T00:58:48;5.07;;;4.68;;
23362;SDS011;11853;48.080;11.960;2022-08-19T01:01:14;5.55;;;5.15;;
23362;SDS011;11853;48.080;11.960;2022-08-19T01:03:45;5.90;;;5.38;;
23362;SDS011;11853;48.080;11.960;2022-08-19T01:06:10;5.63;;;5.13;;
23362;SDS011;11853;48.080;11.960;2022-08-19T01:08:36;5.38;;;4.97;;
23362;SDS011;11853;48.080;11.960;2022-08-19T01:11:02;4.85;;;4.55;;
23362;SDS011;11853;48.080;11.960;2022-08-19T01:13:29;4.70;;;4.38;;
23362;SDS011;11853;48.080;11.960;2022-08-19T01:16:00;5.25;;;4.85;;
23362;SDS011;11853;48.080;11.960;2022-08-19T01:18:31;4.80;;;4.28;;
23362;SDS011;11853;48.080;11.960;2022-08-19T01:21:02;4.72;;;4.30;;
23362;SDS011;11853;48.080;11.960;2022-08-19T01:23:33;4.32;;;4.03;;
23362;SDS011;11853;48.080;11.960;2022-08-19T01:26:09;4.45;;;4.15;;
23362;SDS011;11853;48.080;11.960;2022-08-19T01:28:37;5.18;;;4.75;;
23362;SDS011;11853;48.080;11.960;2022-08-19T01:31:05;4.40;;;4.00;;
23362;SDS011;11853;48.080;11.960;2022-08-19T01:33:40;4.57;;;4.10;;
23362;SDS011;11853;48.080;11.960;2022-08-19T01:36:07;4.60;;;4.20;;
23362;SDS011;11853;48.080;11.960;2022-08-19T01:38:38;4.35;;;4.05;;
23362;SDS011;11853;48.080;11.960;2022-08-19T01:41:06;4.50;;;4.20;;
23362;SDS011;11853;48.080;11.960;2022-08-19T01:43:33;4.53;;;4.13;;
23362;SDS011;11853;48.080;11.960;2022-08-19T01:46:01;5.95;;;5.28;;
23362;SDS011;11853;48.080;11.960;2022-08-19T01:48:32;4.28;;;3.97;;
23362;SDS011;11853;48.080;11.960;2022-08-19T01:50:59;4.90;;;4.38;;
23362;SDS011;11853;48.080;11.960;2022-08-19T01:53:24;4.95;;;4.45;;
23362;SDS011;11853;48.080;11.960;2022-08-19T01:55:50;4.47;;;4.18;;
23362;SDS011;11853;48.080;11.960;2022-08-19T01:58:18;4.60;;;4.03;;
23362;SDS011;11853;48.080;11.960;2022-08-19T02:00:45;4.57;;;4.18;;
23362;SDS011;11853;48.080;11.960;2022-08-19T02:03:11;4.85;;;4.47;;
23362;SDS011;11853;48.080;11.960;2022-08-19T02:05:41;4.03;;;3.72;;
23362;SDS011;11853;48.080;11.960;2022-08-19T02:08:08;5.05;;;4.57;;
23362;SDS011;11853;48.080;11.960;2022-08-19T02:10:37;4.50;;;4.07;;
23362;SDS011;11853;48.080;11.960;2022-08-19T02:13:07;5.22;;;4.13;;
23362;SDS011;11853;48.080;11.960;2022-08-19T02:15:34;4.10;;;3.80;;
23362;SDS011;11853;48.080;11.960;2022-08-19T02:18:02;4.50;;;4.20;;
23362;SDS011;11853;48.080;11.960;2022-08-19T02:20:28;5.90;;;5.05;;
23362;SDS011;11853;48.080;11.960;2022-08-19T02:22:55;5.00;;;4.35;;
23362;SDS011;11853;48.080;11.960;2022-08-19T02:25:20;4.32;;;3.92;;
23362;SDS011;11853;48.080;11.960;2022-08-19T02:27:46;4.90;;;4.40;;
23362;SDS011;11853;48.080;11.960;2022-08-19T02:30:15;4.15;;;3.75;;
23362;SDS011;11853;48.080;11.960;2022-08-19T02:32:42;4.40;;;4.00;;
23362;SDS011;11853;48.080;11.960;2022-08-19T02:35:08;4.15;;;3.78;;
23362;SDS011;11853;48.080;11.960;2022-08-19T02:37:34;3.70;;;3.40;;
23362;SDS011;11853;48.080;11.960;2022-08-19T02:40:18;4.45;;;4.03;;
23362;SDS011;11853;48.080;11.960;2022-08-19T02:42:44;4.00;;;3.70;;
23362;SDS011;11853;48.080;11.960;2022-08-19T02:45:11;3.97;;;3.67;;
23362;SDS011;11853;48.080;11.960;2022-08-19T02:47:38;4.13;;;3.83;;
23362;SDS011;11853;48.080;11.960;2022-08-19T02:50:04;3.90;;;3.58;;
23362;SDS011;11853;48.080;11.960;2022-08-19T02:52:32;4.07;;;3.72;;
23362;SDS011;11853;48.080;11.960;2022-08-19T02:54:59;4.05;;;3.75;;
23362;SDS011;11853;48.080;11.960;2022-08-19T02:57:25;3.55;;;3.30;;
23362;SDS011;11853;48.080;11.960;2022-08-19T02:59:51;3.88;;;3.40;;
23362;SDS011;11853;48.080;11.960;2022-08-19T03:02:17;3.53;;;3.33;;
23362;SDS011;11853;48.080;11.960;2022-08-19T03:04:43;3.13;;;2.92;;
23362;SDS011;11853;48.080;11.960;2022-08-19T03:07:09;3.83;;;3.53;;
23362;SDS011;11853;48.080;11.960;2022-08-19T03:09:39;4.20;;;3.80;;
23362;SDS011;11853;48.080;11.960;2022-08-19T03:12:05;3.70;;;3.50;;
23362;SDS011;11853;48.080;11.960;2022-08-19T03:14:32;3.90;;;3.20;;
23362;SDS011;11853;48.080;11.960;2022-08-19T03:17:00;4.82;;;4.18;;
23362;SDS011;11853;48.080;11.960;2022-08-19T03:19:29;3.78;;;3.53;;
23362;SDS011;11853;48.080;11.960;2022-08-19T03:21:55;3.65;;;3.35;;
23362;SDS011;11853;48.080;11.960;2022-08-19T03:24:21;4.20;;;3.90;;
23362;SDS011;11853;48.080;11.960;2022-08-19T03:26:47;4.15;;;3.85;;
23362;SDS011;11853;48.080;11.960;2022-08-19T03:29:17;4.18;;;3.85;;
23362;SDS011;11853;48.080;11.960;2022-08-19T03:31:44;3.72;;;3.53;;
23362;SDS011;11853;48.080;11.960;2022-08-19T03:34:14;4.05;;;3.75;;
23362;SDS011;11853;48.080;11.960;2022-08-19T03:36:43;3.72;;;3.42;;
23362;SDS011;11853;48.080;11.960;2022-08-19T03:39:10;3.58;;;3.28;;
23362;SDS011;11853;48.080;11.960;2022-08-19T03:41:40;3.67;;;3.38;;
23362;SDS011;11853;48.080;11.960;2022-08-19T03:44:07;3.30;;;3.10;;
23362;SDS011;11853;48.080;11.960;2022-08-19T03:46:33;4.85;;;3.35;;
23362;SDS011;11853;48.080;11.960;2022-08-19T03:49:00;4.45;;;3.72;;
23362;SDS011;11853;48.080;11.960;2022-08-19T03:51:33;3.53;;;3.00;;
23362;SDS011;11853;48.080;11.960;2022-08-19T03:54:04;3.83;;;3.53;;
23362;SDS011;11853;48.080;11.960;2022-08-19T03:56:40;3.72;;;3.42;;
23362;SDS011;11853;48.080;11.960;2022-08-19T03:59:09;3.85;;;3.55;;
23362;SDS011;11853;48.080;11.960;2022-08-19T04:01:37;3.45;;;3.20;;
23362;SDS011;11853;48.080;11.960;2022-08-19T04:04:08;4.05;;;3.72;;
23362;SDS011;11853;48.080;11.960;2022-08-19T04:06:37;3.70;;;3.40;;
23362;SDS011;11853;48.080;11.960;2022-08-19T04:09:04;3.95;;;3.65;;
23362;SDS011;11853;48.080;11.960;2022-08-19T04:11:49;3.50;;;3.20;;
23362;SDS011;11853;48.080;11.960;2022-08-19T04:14:20;3.78;;;3.47;;
23362;SDS011;11853;48.080;11.960;2022-08-19T04:16:47;3.47;;;3.08;;
23362;SDS011;11853;48.080;11.960;2022-08-19T04:19:14;3.97;;;3.67;;
23362;SDS011;11853;48.080;11.960;2022-08-19T04:21:42;3.88;;;3.30;;
23362;SDS011;11853;48.080;11.960;2022-08-19T04:24:09;3.38;;;3.17;;
23362;SDS011;11853;48.080;11.960;2022-08-19T04:26:35;4.20;;;3.90;;
23362;SDS011;11853;48.080;11.960;2022-08-19T04:29:07;3.78;;;3.47;;
23362;SDS011;11853;48.080;11.960;2022-08-19T04:31:34;3.95;;;3.65;;
23362;SDS011;11853;48.080;11.960;2022-08-19T04:34:02;4.20;;;3.85;;
23362;SDS011;11853;48.080;11.960;2022-08-19T04:36:33;3.72;;;3.50;;
23362;SDS011;11853;48.080;11.960;2022-08-19T04:39:03;3.85;;;3.42;;
23362;SDS011;11853;48.080;11.960;2022-08-19T04:41:32;3.80;;;3.53;;
23362;SDS011;11853;48.080;11.960;2022-08-19T04:44:17;3.90;;;3.60;;
23362;SDS011;11853;48.080;11.960;2022-08-19T04:46:44;3.88;;;3.58;;
23362;SDS011;11853;48.080;11.960;2022-08-19T04:49:12;4.22;;;3.92;;
23362;SDS011;11853;48.080;11.960;2022-08-19T04:51:42;3.78;;;3.47;;
23362;SDS011;11853;48.080;11.960;2022-08-19T04:54:09;3.20;;;3.00;;
23362;SDS011;11853;48.080;11.960;2022-08-19T04:56:36;3.40;;;3.20;;
23362;SDS011;11853;48.080;11.960;2022-08-19T04:59:02;3.58;;;3.28;;
23362;SDS011;11853;48.080;11.960;2022-08-19T05:01:31;4.03;;;3.65;;
23362;SDS011;11853;48.080;11.960;2022-08-19T05:03:58;3.90;;;3.60;;
23362;SDS011;11853;48.080;11.960;2022-08-19T05:06:26;4.07;;;3.67;;
23362;SDS011;11853;48.080;11.960;2022-08-19T05:08:53;3.83;;;3.60;;
23362;SDS011;11853;48.080;11.960;2022-08-19T05:11:28;3.60;;;3.40;;
23362;SDS011;11853;48.080;11.960;2022-08-19T05:13:57;4.00;;;3.70;;
23362;SDS011;11853;48.080;11.960;2022-08-19T05:16:24;3.42;;;3.17;;
23362;SDS011;11853;48.080;11.960;2022-08-19T05:18:50;4.20;;;3.90;;
23362;SDS011;11853;48.080;11.960;2022-08-19T05:21:34;3.88;;;3.58;;
23362;SDS011;11853;48.080;11.960;2022-08-19T05:24:21;3.15;;;2.95;;
23362;SDS011;11853;48.080;11.960;2022-08-19T05:26:50;4.35;;;3.20;;
23362;SDS011;11853;48.080;11.960;2022-08-19T05:29:18;3.83;;;3.53;;
23362;SDS011;11853;48.080;11.960;2022-08-19T05:31:47;4.05;;;3.65;;
23362;SDS011;11853;48.080;11.960;2022-08-19T05:34:21;3.95;;;3.65;;
23362;SDS011;11853;48.080;11.960;2022-08-19T05:36:50;4.10;;;3.78;;
23362;SDS011;11853;48.080;11.960;2022-08-19T05:41:51;3.67;;;3.22;;
23362;SDS011;11853;48.080;11.960;2022-08-19T05:44:19;4.18;;;3.88;;
23362;SDS011;11853;48.080;11.960;2022-08-19T05:46:47;5.80;;;3.55;;
23362;SDS011;11853;48.080;11.960;2022-08-19T05:49:14;4.80;;;3.83;;
23362;SDS011;11853;48.080;11.960;2022-08-19T05:51:42;4.80;;;4.28;;
23362;SDS011;11853;48.080;11.960;2022-08-19T05:54:08;3.70;;;3.50;;
23362;SDS011;11853;48.080;11.960;2022-08-19T05:56:34;4.10;;;3.67;;
23362;SDS011;11853;48.080;11.960;2022-08-19T05:59:04;4.30;;;3.95;;
23362;SDS011;11853;48.080;11.960;2022-08-19T06:01:34;4.72;;;4.28;;
23362;SDS011;11853;48.080;11.960;2022-08-19T06:04:03;5.75;;;4.00;;
23362;SDS011;11853;48.080;11.960;2022-08-19T06:06:29;4.40;;;3.97;;
23362;SDS011;11853;48.080;11.960;2022-08-19T06:08:55;5.15;;;4.65;;
23362;SDS011;11853;48.080;11.960;2022-08-19T06:11:25;4.63;;;4.22;;
23362;SDS011;11853;48.080;11.960;2022-08-19T06:14:05;5.72;;;4.32;;
23362;SDS011;11853;48.080;11.960;2022-08-19T06:16:36;4.82;;;4.43;;
23362;SDS011;11853;48.080;11.960;2022-08-19T06:19:06;5.30;;;4.45;;
23362;SDS011;11853;48.080;11.960;2022-08-19T06:21:33;3.90;;;3.60;;
23362;SDS011;11853;48.080;11.960;2022-08-19T06:24:06;4.63;;;4.32;;
23362;SDS011;11853;48.080;11.960;2022-08-19T06:26:35;4.78;;;4.38;;
23362;SDS011;11853;48.080;11.960;2022-08-19T06:29:03;5.45;;;5.03;;
23362;SDS011;11853;48.080;11.960;2022-08-19T06:31:31;4.82;;;4.43;;
23362;SDS011;11853;48.080;11.960;2022-08-19T06:33:59;5.35;;;4.82;;
23362;SDS011;11853;48.080;11.960;2022-08-19T06:36:29;5.55;;;5.03;;
23362;SDS011;11853;48.080;11.960;2022-08-19T06:38:58;4.90;;;4.22;;
23362;SDS011;11853;48.080;11.960;2022-08-19T06:41:34;5.55;;;5.10;;
23362;SDS011;11853;48.080;11.960;2022-08-19T06:44:04;5.43;;;5.03;;
23362;SDS011;11853;48.080;11.960;2022-08-19T06:46:30;4.70;;;4.40;;
23362;SDS011;11853;48.080;11.960;2022-08-19T06:48:56;4.93;;;4.53;;
23362;SDS011;11853;48.080;11.960;2022-08-19T06:51:23;5.72;;;4.43;;
23362;SDS011;11853;48.080;11.960;2022-08-19T06:53:52;5.80;;;5.25;;
23362;SDS011;11853;48.080;11.960;2022-08-19T06:56:20;6.03;;;5.45;;
23362;SDS011;11853;48.080;11.960;2022-08-19T06:58:50;4.35;;;4.05;;
23362;SDS011;11853;48.080;11.960;2022-08-19T07:01:19;5.25;;;4.82;;
23362;SDS011;11853;48.080;11.960;2022-08-19T07:03:45;5.05;;;4.65;;
23362;SDS011;11853;48.080;11.960;2022-08-19T07:06:13;4.28;;;3.95;;
23362;SDS011;11853;48.080;11.960;2022-08-19T07:08:42;4.35;;;4.05;;
23362;SDS011;11853;48.080;11.960;2022-08-19T07:11:13;4.30;;;3.50;;
23362;SDS011;11853;48.080;11.960;2022-08-19T07:13:44;4.88;;;4.50;;
23362;SDS011;11853;48.080;11.960;2022-08-19T07:16:14;5.45;;;4.93;;
23362;SDS011;11853;48.080;11.960;2022-08-19T07:18:42;5.30;;;4.72;;
23362;SDS011;11853;48.080;11.960;2022-08-19T07:21:13;4.35;;;3.95;;
23362;SDS011;11853;48.080;11.960;2022-08-19T07:23:42;4.90;;;4.32;;
23362;SDS011;11853;48.080;11.960;2022-08-19T07:26:15;5.32;;;4.72;;
23362;SDS011;11853;48.080;11.960;2022-08-19T07:28:44;5.55;;;5.05;;
23362;SDS011;11853;48.080;11.960;2022-08-19T07:31:12;6.00;;;5.38;;
23362;SDS011;11853;48.080;11.960;2022-08-19T07:33:41;5.25;;;4.85;;
23362;SDS011;11853;48.080;11.960;2022-08-19T07:36:09;6.07;;;5.57;;
23362;SDS011;11853;48.080;11.960;2022-08-19T07:38:39;5.22;;;4.72;;
23362;SDS011;11853;48.080;11.960;2022-08-19T07:41:08;6.57;;;5.63;;
23362;SDS011;11853;48.080;11.960;2022-08-19T07:43:39;5.85;;;5.35;;
23362;SDS011;11853;48.080;11.960;2022-08-19T07:46:10;5.18;;;4.78;;
23362;SDS011;11853;48.080;11.960;2022-08-19T07:48:38;5.53;;;5.03;;
23362;SDS011;11853;48.080;11.960;2022-08-19T07:51:17;5.60;;;5.20;;
23362;SDS011;11853;48.080;11.960;2022-08-19T07:53:45;5.88;;;5.28;;
23362;SDS011;11853;48.080;11.960;2022-08-19T07:56:13;6.43;;;5.82;;
23362;SDS011;11853;48.080;11.960;2022-08-19T07:58:49;4.95;;;4.45;;
23362;SDS011;11853;48.080;11.960;2022-08-19T08:01:19;5.95;;;5.43;;
23362;SDS011;11853;48.080;11.960;2022-08-19T08:03:49;5.93;;;5.30;;
23362;SDS011;11853;48.080;11.960;2022-08-19T08:06:34;5.25;;;4.85;;
23362;SDS011;11853;48.080;11.960;2022-08-19T08:09:24;6.47;;;5.70;;
23362;SDS011;11853;48.080;11.960;2022-08-19T08:11:58;6.63;;;5.53;;
23362;SDS011;11853;48.080;11.960;2022-08-19T08:14:32;6.05;;;5.55;;
23362;SDS011;11853;48.080;11.960;2022-08-19T08:17:02;6.35;;;5.85;;
23362;SDS011;11853;48.080;11.960;2022-08-19T08:19:29;5.93;;;5.32;;
23362;SDS011;11853;48.080;11.960;2022-08-19T08:21:58;6.53;;;6.03;;
23362;SDS011;11853;48.080;11.960;2022-08-19T08:24:26;7.32;;;6.70;;
23362;SDS011;11853;48.080;11.960;2022-08-19T08:26:53;7.30;;;6.60;;
23362;SDS011;11853;48.080;11.960;2022-08-19T08:29:19;6.70;;;6.10;;
23362;SDS011;11853;48.080;11.960;2022-08-19T08:31:46;7.60;;;6.90;;
23362;SDS011;11853;48.080;11.960;2022-08-19T08:34:13;6.93;;;6.32;;
23362;SDS011;11853;48.080;11.960;2022-08-19T08:36:42;7.95;;;7.15;;
23362;SDS011;11853;48.080;11.960;2022-08-19T08:39:20;8.18;;;7.38;;
23362;SDS011;11853;48.080;11.960;2022-08-19T08:47:14;6.72;;;6.13;;
23362;SDS011;11853;48.080;11.960;2022-08-19T08:49:50;6.78;;;6.07;;
23362;SDS011;11853;48.080;11.960;2022-08-19T08:54:53;7.03;;;6.32;;
23362;SDS011;11853;48.080;11.960;2022-08-19T08:59:53;9.05;;;8.20;;
23362;SDS011;11853;48.080;11.960;2022-08-19T09:02:21;8.55;;;7.80;;
23362;SDS011;11853;48.080;11.960;2022-08-19T09:04:47;9.75;;;7.40;;
23362;SDS011;11853;48.080;11.960;2022-08-19T09:07:27;7.28;;;6.55;;
23362;SDS011;11853;48.080;11.960;2022-08-19T09:10:20;8.43;;;7.50;;
23362;SDS011;11853;48.080;11.960;2022-08-19T09:12:49;7.18;;;6.57;;
23362;SDS011;11853;48.080;11.960;2022-08-19T09:15:34;7.78;;;6.78;;
23362;SDS011;11853;48.080;11.960;2022-08-19T09:18:05;9.90;;;8.52;;
23362;SDS011;11853;48.080;11.960;2022-08-19T09:20:34;7.60;;;6.80;;
23362;SDS011;11853;48.080;11.960;2022-08-19T09:23:02;7.65;;;6.88;;
23362;SDS011;11853;48.080;11.960;2022-08-19T09:25:28;8.27;;;7.55;;
23362;SDS011;11853;48.080;11.960;2022-08-19T09:27:55;8.48;;;7.68;;
23362;SDS011;11853;48.080;11.960;2022-08-19T09:30:23;8.35;;;7.60;;
23362;SDS011;11853;48.080;11.960;2022-08-19T09:32:51;9.85;;;8.95;;
23362;SDS011;11853;48.080;11.960;2022-08-19T09:35:23;9.05;;;8.20;;
23362;SDS011;11853;48.080;11.960;2022-08-19T09:37:51;11.43;;;10.32;;
23362;SDS011;11853;48.080;11.960;2022-08-19T09:40:23;9.85;;;8.95;;
23362;SDS011;11853;48.080;11.960;2022-08-19T09:42:57;11.35;;;10.27;;
23362;SDS011;11853;48.080;11.960;2022-08-19T09:45:28;10.43;;;9.32;;
23362;SDS011;11853;48.080;11.960;2022-08-19T09:47:54;9.60;;;8.55;;
23362;SDS011;11853;48.080;11.960;2022-08-19T09:50:22;9.10;;;8.30;;
23362;SDS011;11853;48.080;11.960;2022-08-19T09:52:48;10.85;;;9.70;;
23362;SDS011;11853;48.080;11.960;2022-08-19T09:55:14;8.70;;;7.90;;
23362;SDS011;11853;48.080;11.960;2022-08-19T09:57:41;9.20;;;8.38;;
23362;SDS011;11853;48.080;11.960;2022-08-19T10:00:07;9.02;;;8.23;;
23362;SDS011;11853;48.080;11.960;2022-08-19T10:02:36;10.02;;;9.13;;
23362;SDS011;11853;48.080;11.960;2022-08-19T10:05:02;10.48;;;9.50;;
23362;SDS011;11853;48.080;11.960;2022-08-19T10:07:46;9.90;;;9.00;;
23362;SDS011;11853;48.080;11.960;2022-08-19T10:10:12;8.32;;;7.50;;
23362;SDS011;11853;48.080;11.960;2022-08-19T10:12:38;8.10;;;7.40;;
23362;SDS011;11853;48.080;11.960;2022-08-19T10:15:04;7.10;;;6.45;;
23362;SDS011;11853;48.080;11.960;2022-08-19T10:17:33;10.40;;;9.50;;
23362;SDS011;11853;48.080;11.960;2022-08-19T10:20:00;8.20;;;7.40;;
23362;SDS011;11853;48.080;11.960;2022-08-19T10:22:27;9.10;;;8.30;;
23362;SDS011;11853;48.080;11.960;2022-08-19T10:24:53;8.80;;;8.00;;
23362;SDS011;11853;48.080;11.960;2022-08-19T10:27:20;8.23;;;7.53;;
23362;SDS011;11853;48.080;11.960;2022-08-19T10:29:46;8.40;;;7.60;;
23362;SDS011;11853;48.080;11.960;2022-08-19T10:32:12;7.82;;;7.00;;
23362;SDS011;11853;48.080;11.960;2022-08-19T10:34:40;8.48;;;7.50;;
23362;SDS011;11853;48.080;11.960;2022-08-19T10:37:06;7.07;;;6.38;;
23362;SDS011;11853;48.080;11.960;2022-08-19T10:39:33;6.70;;;6.20;;
23362;SDS011;11853;48.080;11.960;2022-08-19T10:42:09;7.07;;;5.95;;
23362;SDS011;11853;48.080;11.960;2022-08-19T10:44:38;6.97;;;6.38;;
23362;SDS011;11853;48.080;11.960;2022-08-19T10:47:05;7.65;;;6.97;;
23362;SDS011;11853;48.080;11.960;2022-08-19T10:49:31;9.73;;;8.73;;
23362;SDS011;11853;48.080;11.960;2022-08-19T10:51:57;7.60;;;6.90;;
23362;SDS011;11853;48.080;11.960;2022-08-19T10:54:41;7.30;;;6.70;;
23362;SDS011;11853;48.080;11.960;2022-08-19T10:57:29;6.70;;;6.10;;
23362;SDS011;11853;48.080;11.960;2022-08-19T10:59:55;6.30;;;5.70;;
23362;SDS011;11853;48.080;11.960;2022-08-19T11:02:21;6.40;;;5.78;;
23362;SDS011;11853;48.080;11.960;2022-08-19T11:04:47;6.15;;;5.60;;
23362;SDS011;11853;48.080;11.960;2022-08-19T11:07:14;6.30;;;5.70;;
23362;SDS011;11853;48.080;11.960;2022-08-19T11:09:41;7.13;;;6.43;;
23362;SDS011;11853;48.080;11.960;2022-08-19T11:12:08;7.10;;;6.50;;
23362;SDS011;11853;48.080;11.960;2022-08-19T11:14:53;8.65;;;6.53;;
23362;SDS011;11853;48.080;11.960;2022-08-19T11:17:38;6.50;;;6.00;;
23362;SDS011;11853;48.080;11.960;2022-08-19T11:20:06;6.40;;;5.90;;
23362;SDS011;11853;48.080;11.960;2022-08-19T11:22:33;5.80;;;5.30;;
23362;SDS011;11853;48.080;11.960;2022-08-19T11:24:59;6.68;;;6.07;;
23362;SDS011;11853;48.080;11.960;2022-08-19T11:27:25;5.80;;;5.28;;
23362;SDS011;11853;48.080;11.960;2022-08-19T11:29:51;5.90;;;5.40;;
23362;SDS011;11853;48.080;11.960;2022-08-19T11:32:17;6.32;;;5.78;;
23362;SDS011;11853;48.080;11.960;2022-08-19T11:34:43;5.93;;;5.43;;
23362;SDS011;11853;48.080;11.960;2022-08-19T11:37:08;7.28;;;6.68;;
23362;SDS011;11853;48.080;11.960;2022-08-19T11:39:36;7.07;;;6.38;;
23362;SDS011;11853;48.080;11.960;2022-08-19T11:42:03;7.15;;;6.55;;
23362;SDS011;11853;48.080;11.960;2022-08-19T11:44:48;8.18;;;7.43;;
23362;SDS011;11853;48.080;11.960;2022-08-19T11:47:14;6.72;;;6.22;;
23362;SDS011;11853;48.080;11.960;2022-08-19T11:49:40;6.65;;;6.15;;
23362;SDS011;11853;48.080;11.960;2022-08-19T11:52:07;6.72;;;6.10;;
23362;SDS011;11853;48.080;11.960;2022-08-19T11:54:34;6.60;;;5.97;;
23362;SDS011;11853;48.080;11.960;2022-08-19T11:57:02;7.10;;;6.50;;
23362;SDS011;11853;48.080;11.960;2022-08-19T11:59:28;6.47;;;5.97;;
23362;SDS011;11853;48.080;11.960;2022-08-19T12:01:54;6.72;;;6.22;;
23362;SDS011;11853;48.080;11.960;2022-08-19T12:04:21;6.55;;;5.95;;
23362;SDS011;11853;48.080;11.960;2022-08-19T12:06:47;6.57;;;6.07;;
23362;SDS011;11853;48.080;11.960;2022-08-19T12:09:12;6.68;;;6.07;;
23362;SDS011;11853;48.080;11.960;2022-08-19T12:11:40;6.43;;;5.93;;
23362;SDS011;11853;48.080;11.960;2022-08-19T12:14:06;6.32;;;5.82;;
23362;SDS011;11853;48.080;11.960;2022-08-19T12:16:38;6.80;;;6.28;;
23362;SDS011;11853;48.080;11.960;2022-08-19T12:19:04;5.57;;;5.18;;
23362;SDS011;11853;48.080;11.960;2022-08-19T12:21:31;6.45;;;5.95;;
23362;SDS011;11853;48.080;11.960;2022-08-19T12:23:59;6.20;;;5.65;;
23362;SDS011;11853;48.080;11.960;2022-08-19T12:26:27;6.30;;;5.80;;
23362;SDS011;11853;48.080;11.960;2022-08-19T12:28:56;5.93;;;5.47;;
23362;SDS011;11853;48.080;11.960;2022-08-19T12:31:24;6.07;;;5.57;;
23362;SDS011;11853;48.080;11.960;2022-08-19T12:33:51;6.15;;;5.65;;
23362;SDS011;11853;48.080;11.960;2022-08-19T12:36:17;5.97;;;5.47;;
23362;SDS011;11853;48.080;11.960;2022-08-19T12:38:43;6.07;;;5.57;;
23362;SDS011;11853;48.080;11.960;2022-08-19T12:41:10;6.45;;;5.38;;
23362;SDS011;11853;48.080;11.960;2022-08-19T12:43:38;5.60;;;5.20;;
23362;SDS011;11853;48.080;11.960;2022-08-19T12:46:04;5.97;;;5.45;;
23362;SDS011;11853;48.080;11.960;2022-08-19T12:48:31;5.45;;;5.05;;
23362;SDS011;11853;48.080;11.960;2022-08-19T12:50:57;6.97;;;6.38;;
23362;SDS011;11853;48.080;11.960;2022-08-19T12:53:23;8.65;;;7.20;;
23362;SDS011;11853;48.080;11.960;2022-08-19T12:55:56;8.52;;;7.72;;
23362;SDS011;11853;48.080;11.960;2022-08-19T12:58:25;8.13;;;7.43;;
23362;SDS011;11853;48.080;11.960;2022-08-19T13:00:51;8.15;;;7.45;;
23362;SDS011;11853;48.080;11.960;2022-08-19T13:03:17;7.18;;;6.57;;
23362;SDS011;11853;48.080;11.960;2022-08-19T13:05:47;7.72;;;7.03;;
23362;SDS011;11853;48.080;11.960;2022-08-19T13:08:15;6.30;;;5.80;;
23362;SDS011;11853;48.080;11.960;2022-08-19T13:10:42;7.07;;;6.47;;
23362;SDS011;11853;48.080;11.960;2022-08-19T13:13:08;6.72;;;6.13;;
23362;SDS011;11853;48.080;11.960;2022-08-19T13:15:35;5.65;;;5.15;;
23362;SDS011;11853;48.080;11.960;2022-08-19T13:18:04;5.18;;;4.75;;
23362;SDS011;11853;48.080;11.960;2022-08-19T13:20:34;5.00;;;4.57;;
23362;SDS011;11853;48.080;11.960;2022-08-19T13:23:01;4.80;;;4.40;;
23362;SDS011;11853;48.080;11.960;2022-08-19T13:25:27;4.30;;;4.00;;
23362;SDS011;11853;48.080;11.960;2022-08-19T13:27:59;3.92;;;3.63;;
23362;SDS011;11853;48.080;11.960;2022-08-19T13:30:25;3.63;;;3.33;;
23362;SDS011;11853;48.080;11.960;2022-08-19T13:33:09;3.92;;;3.50;;
23362;SDS011;11853;48.080;11.960;2022-08-19T13:35:48;3.30;;;3.08;;
23362;SDS011;11853;48.080;11.960;2022-08-19T13:38:16;3.03;;;2.83;;
23362;SDS011;11853;48.080;11.960;2022-08-19T13:40:44;3.30;;;3.00;;
23362;SDS011;11853;48.080;11.960;2022-08-19T13:43:10;2.83;;;2.63;;
23362;SDS011;11853;48.080;11.960;2022-08-19T13:45:35;2.30;;;2.15;;
23362;SDS011;11853;48.080;11.960;2022-08-19T13:48:03;2.53;;;2.28;;
23362;SDS011;11853;48.080;11.960;2022-08-19T13:53:00;2.15;;;2.05;;
23362;SDS011;11853;48.080;11.960;2022-08-19T13:55:27;2.35;;;2.17;;
23362;SDS011;11853;48.080;11.960;2022-08-19T13:57:58;1.73;;;1.63;;
23362;SDS011;11853;48.080;11.960;2022-08-19T14:00:27;1.80;;;1.70;;
23362;SDS011;11853;48.080;11.960;2022-08-19T14:02:54;1.90;;;1.80;;
23362;SDS011;11853;48.080;11.960;2022-08-19T14:05:25;1.60;;;1.50;;
23362;SDS011;11853;48.080;11.960;2022-08-19T14:07:52;1.67;;;1.58;;
23362;SDS011;11853;48.080;11.960;2022-08-19T14:10:18;2.55;;;1.65;;
23362;SDS011;11853;48.080;11.960;2022-08-19T14:12:44;1.67;;;1.58;;
23362;SDS011;11853;48.080;11.960;2022-08-19T14:15:11;1.60;;;1.50;;
23362;SDS011;11853;48.080;11.960;2022-08-19T14:17:39;1.70;;;1.60;;
23362;SDS011;11853;48.080;11.960;2022-08-19T14:20:06;1.88;;;1.60;;
23362;SDS011;11853;48.080;11.960;2022-08-19T14:22:38;1.70;;;1.60;;
23362;SDS011;11853;48.080;11.960;2022-08-19T14:25:16;1.58;;;1.48;;
23362;SDS011;11853;48.080;11.960;2022-08-19T14:27:48;1.63;;;1.52;;
23362;SDS011;11853;48.080;11.960;2022-08-19T14:30:17;1.98;;;1.60;;
23362;SDS011;11853;48.080;11.960;2022-08-19T14:32:45;1.37;;;1.37;;
23362;SDS011;11853;48.080;11.960;2022-08-19T14:35:13;1.30;;;1.20;;
23362;SDS011;11853;48.080;11.960;2022-08-19T14:37:41;1.25;;;1.15;;
23362;SDS011;11853;48.080;11.960;2022-08-19T14:40:08;1.95;;;1.48;;
23362;SDS011;11853;48.080;11.960;2022-08-19T14:42:34;1.27;;;1.27;;
23362;SDS011;11853;48.080;11.960;2022-08-19T14:45:00;1.40;;;1.30;;
23362;SDS011;11853;48.080;11.960;2022-08-19T14:47:26;1.27;;;1.17;;
23362;SDS011;11853;48.080;11.960;2022-08-19T14:49:52;1.83;;;1.73;;
23362;SDS011;11853;48.080;11.960;2022-08-19T14:52:18;1.73;;;1.63;;
23362;SDS011;11853;48.080;11.960;2022-08-19T14:54:46;2.00;;;1.90;;
23362;SDS011;11853;48.080;11.960;2022-08-19T14:57:20;2.67;;;1.80;;
23362;SDS011;11853;48.080;11.960;2022-08-19T14:59:46;1.90;;;1.80;;